Terminal Aerodrome Forecast
Issued by NWS

Home | Current Version | Previous Version | Graphics & Text | Print | Product List | Glossary On
Versions: 1 2 3 4 5 6 7 8 9 10 11 12 13 14 15 16 17 18 19 20 21 22
000
FTUS43 KGRB 191736
TAFMTW
TAF
KMTW 191736Z 1918/2018 11006KT P6SM OVC012
     FM192000 12005KT P6SM SCT015
      TEMPO 1920/1924 BKN015
     FM201000 15006KT 2SM BR SCT011
      TEMPO 2010/2011 4SM BR
     FM201300 15008KT P6SM SCT014
     FM201500 16011G18KT P6SM BKN060=

USA.gov is the U.S. government's official web portal to all federal, state and local government web resources and services.